sensor_id;sensor_type;location;lat;lon;timestamp;P1;durP1;ratioP1;P2;durP2;ratioP2
6505;SDS011;3286;49.858;8.768;2022-12-05T00:01:12;24.20;;;10.80;;
6505;SDS011;3286;49.858;8.768;2022-12-05T00:03:43;21.17;;;11.13;;
6505;SDS011;3286;49.858;8.768;2022-12-05T00:06:11;21.20;;;10.37;;
6505;SDS011;3286;49.858;8.768;2022-12-05T00:08:39;21.37;;;11.23;;
6505;SDS011;3286;49.858;8.768;2022-12-05T00:11:09;20.60;;;11.30;;
6505;SDS011;3286;49.858;8.768;2022-12-05T00:13:39;26.73;;;11.27;;
6505;SDS011;3286;49.858;8.768;2022-12-05T00:16:13;22.37;;;11.50;;
6505;SDS011;3286;49.858;8.768;2022-12-05T00:18:41;21.80;;;10.40;;
6505;SDS011;3286;49.858;8.768;2022-12-05T00:21:11;20.20;;;11.20;;
6505;SDS011;3286;49.858;8.768;2022-12-05T00:23:46;22.33;;;11.60;;
6505;SDS011;3286;49.858;8.768;2022-12-05T00:26:13;25.07;;;11.53;;
6505;SDS011;3286;49.858;8.768;2022-12-05T00:28:40;23.63;;;11.73;;
6505;SDS011;3286;49.858;8.768;2022-12-05T00:31:10;19.27;;;11.40;;
6505;SDS011;3286;49.858;8.768;2022-12-05T00:33:40;19.93;;;11.47;;
6505;SDS011;3286;49.858;8.768;2022-12-05T00:36:07;20.00;;;11.53;;
6505;SDS011;3286;49.858;8.768;2022-12-05T00:38:39;20.63;;;10.73;;
6505;SDS011;3286;49.858;8.768;2022-12-05T00:41:11;21.60;;;10.97;;
6505;SDS011;3286;49.858;8.768;2022-12-05T00:43:39;22.00;;;11.43;;
6505;SDS011;3286;49.858;8.768;2022-12-05T00:46:07;21.10;;;11.77;;
6505;SDS011;3286;49.858;8.768;2022-12-05T00:48:36;20.67;;;10.90;;
6505;SDS011;3286;49.858;8.768;2022-12-05T00:51:03;22.00;;;10.90;;
6505;SDS011;3286;49.858;8.768;2022-12-05T00:53:32;22.33;;;11.83;;
6505;SDS011;3286;49.858;8.768;2022-12-05T00:56:02;21.50;;;10.73;;
6505;SDS011;3286;49.858;8.768;2022-12-05T00:58:29;22.40;;;11.90;;
6505;SDS011;3286;49.858;8.768;2022-12-05T01:00:56;22.37;;;11.53;;
6505;SDS011;3286;49.858;8.768;2022-12-05T01:03:30;22.40;;;11.33;;
6505;SDS011;3286;49.858;8.768;2022-12-05T01:05:57;22.90;;;11.23;;
6505;SDS011;3286;49.858;8.768;2022-12-05T01:08:24;20.30;;;10.63;;
6505;SDS011;3286;49.858;8.768;2022-12-05T01:10:51;21.33;;;11.43;;
6505;SDS011;3286;49.858;8.768;2022-12-05T01:13:24;20.47;;;10.80;;
6505;SDS011;3286;49.858;8.768;2022-12-05T01:15:53;26.03;;;11.83;;
6505;SDS011;3286;49.858;8.768;2022-12-05T01:18:21;18.47;;;10.57;;
6505;SDS011;3286;49.858;8.768;2022-12-05T01:20:48;21.83;;;10.90;;
6505;SDS011;3286;49.858;8.768;2022-12-05T01:23:15;23.47;;;11.37;;
6505;SDS011;3286;49.858;8.768;2022-12-05T01:25:43;24.30;;;11.03;;
6505;SDS011;3286;49.858;8.768;2022-12-05T01:28:12;21.90;;;11.67;;
6505;SDS011;3286;49.858;8.768;2022-12-05T01:30:45;20.90;;;11.10;;
6505;SDS011;3286;49.858;8.768;2022-12-05T01:33:13;22.50;;;11.30;;
6505;SDS011;3286;49.858;8.768;2022-12-05T01:35:46;23.23;;;11.77;;
6505;SDS011;3286;49.858;8.768;2022-12-05T01:38:14;22.27;;;10.77;;
6505;SDS011;3286;49.858;8.768;2022-12-05T01:40:43;20.10;;;11.07;;
6505;SDS011;3286;49.858;8.768;2022-12-05T01:43:15;23.40;;;11.57;;
6505;SDS011;3286;49.858;8.768;2022-12-05T01:45:45;21.43;;;11.63;;
6505;SDS011;3286;49.858;8.768;2022-12-05T01:48:13;23.97;;;12.03;;
6505;SDS011;3286;49.858;8.768;2022-12-05T01:50:44;22.47;;;11.40;;
6505;SDS011;3286;49.858;8.768;2022-12-05T01:53:14;25.43;;;12.00;;
6505;SDS011;3286;49.858;8.768;2022-12-05T01:55:42;22.00;;;11.77;;
6505;SDS011;3286;49.858;8.768;2022-12-05T01:58:18;25.30;;;12.17;;
6505;SDS011;3286;49.858;8.768;2022-12-05T02:00:46;22.03;;;11.63;;
6505;SDS011;3286;49.858;8.768;2022-12-05T02:03:17;20.90;;;11.80;;
6505;SDS011;3286;49.858;8.768;2022-12-05T02:05:45;22.13;;;11.50;;
6505;SDS011;3286;49.858;8.768;2022-12-05T02:08:17;23.83;;;12.00;;
6505;SDS011;3286;49.858;8.768;2022-12-05T02:10:45;22.97;;;12.00;;
6505;SDS011;3286;49.858;8.768;2022-12-05T02:16:16;26.00;;;11.63;;
6505;SDS011;3286;49.858;8.768;2022-12-05T02:18:55;23.73;;;11.37;;
6505;SDS011;3286;49.858;8.768;2022-12-05T02:21:42;26.37;;;12.53;;
6505;SDS011;3286;49.858;8.768;2022-12-05T02:24:43;22.90;;;12.83;;
6505;SDS011;3286;49.858;8.768;2022-12-05T02:27:36;27.67;;;11.97;;
6505;SDS011;3286;49.858;8.768;2022-12-05T02:30:18;22.80;;;11.13;;
6505;SDS011;3286;49.858;8.768;2022-12-05T02:32:48;27.57;;;12.57;;
6505;SDS011;3286;49.858;8.768;2022-12-05T02:35:29;24.13;;;12.63;;
6505;SDS011;3286;49.858;8.768;2022-12-05T02:38:09;23.03;;;11.30;;
6505;SDS011;3286;49.858;8.768;2022-12-05T02:40:43;20.97;;;12.00;;
6505;SDS011;3286;49.858;8.768;2022-12-05T02:43:16;23.50;;;12.47;;
6505;SDS011;3286;49.858;8.768;2022-12-05T02:45:47;23.97;;;12.00;;
6505;SDS011;3286;49.858;8.768;2022-12-05T02:48:19;22.63;;;11.43;;
6505;SDS011;3286;49.858;8.768;2022-12-05T02:50:47;24.60;;;12.63;;
6505;SDS011;3286;49.858;8.768;2022-12-05T02:53:19;25.27;;;12.37;;
6505;SDS011;3286;49.858;8.768;2022-12-05T02:55:47;24.07;;;11.87;;
6505;SDS011;3286;49.858;8.768;2022-12-05T02:58:16;23.83;;;11.97;;
6505;SDS011;3286;49.858;8.768;2022-12-05T03:00:49;24.30;;;12.33;;
6505;SDS011;3286;49.858;8.768;2022-12-05T03:03:25;28.97;;;12.63;;
6505;SDS011;3286;49.858;8.768;2022-12-05T03:05:54;28.83;;;13.03;;
6505;SDS011;3286;49.858;8.768;2022-12-05T03:08:26;26.80;;;12.70;;
6505;SDS011;3286;49.858;8.768;2022-12-05T03:10:55;26.47;;;12.83;;
6505;SDS011;3286;49.858;8.768;2022-12-05T03:13:26;27.07;;;13.03;;
6505;SDS011;3286;49.858;8.768;2022-12-05T03:16:02;31.43;;;13.40;;
6505;SDS011;3286;49.858;8.768;2022-12-05T03:18:36;26.37;;;12.37;;
6505;SDS011;3286;49.858;8.768;2022-12-05T03:21:07;29.07;;;13.27;;
6505;SDS011;3286;49.858;8.768;2022-12-05T03:23:41;26.63;;;12.13;;
6505;SDS011;3286;49.858;8.768;2022-12-05T03:26:17;27.17;;;12.57;;
6505;SDS011;3286;49.858;8.768;2022-12-05T03:29:04;30.57;;;12.40;;
6505;SDS011;3286;49.858;8.768;2022-12-05T03:31:45;24.83;;;11.40;;
6505;SDS011;3286;49.858;8.768;2022-12-05T03:34:20;25.47;;;11.30;;
6505;SDS011;3286;49.858;8.768;2022-12-05T03:36:59;22.77;;;11.80;;
6505;SDS011;3286;49.858;8.768;2022-12-05T03:39:33;28.43;;;12.17;;
6505;SDS011;3286;49.858;8.768;2022-12-05T03:42:08;25.27;;;11.93;;
6505;SDS011;3286;49.858;8.768;2022-12-05T03:44:41;27.80;;;11.73;;
6505;SDS011;3286;49.858;8.768;2022-12-05T03:47:15;30.37;;;11.30;;
6505;SDS011;3286;49.858;8.768;2022-12-05T03:49:47;28.00;;;11.83;;
6505;SDS011;3286;49.858;8.768;2022-12-05T03:52:17;28.20;;;11.60;;
6505;SDS011;3286;49.858;8.768;2022-12-05T03:54:52;26.17;;;11.53;;
6505;SDS011;3286;49.858;8.768;2022-12-05T03:57:23;25.30;;;10.97;;
6505;SDS011;3286;49.858;8.768;2022-12-05T03:59:53;23.30;;;11.80;;
6505;SDS011;3286;49.858;8.768;2022-12-05T04:02:25;28.60;;;11.77;;
6505;SDS011;3286;49.858;8.768;2022-12-05T04:04:57;22.37;;;10.70;;
6505;SDS011;3286;49.858;8.768;2022-12-05T04:07:32;23.70;;;10.97;;
6505;SDS011;3286;49.858;8.768;2022-12-05T04:10:05;23.70;;;11.07;;
6505;SDS011;3286;49.858;8.768;2022-12-05T04:12:37;22.97;;;10.30;;
6505;SDS011;3286;49.858;8.768;2022-12-05T04:15:09;22.73;;;11.00;;
6505;SDS011;3286;49.858;8.768;2022-12-05T04:17:41;22.43;;;11.07;;
6505;SDS011;3286;49.858;8.768;2022-12-05T04:20:19;27.17;;;10.70;;
6505;SDS011;3286;49.858;8.768;2022-12-05T04:23:05;24.90;;;11.43;;
6505;SDS011;3286;49.858;8.768;2022-12-05T04:25:38;23.03;;;12.13;;
6505;SDS011;3286;49.858;8.768;2022-12-05T04:28:21;22.53;;;10.40;;
6505;SDS011;3286;49.858;8.768;2022-12-05T04:30:57;26.97;;;11.50;;
6505;SDS011;3286;49.858;8.768;2022-12-05T04:33:33;27.80;;;11.87;;
6505;SDS011;3286;49.858;8.768;2022-12-05T04:36:07;22.03;;;10.43;;
6505;SDS011;3286;49.858;8.768;2022-12-05T04:38:41;25.00;;;11.50;;
6505;SDS011;3286;49.858;8.768;2022-12-05T04:41:15;25.43;;;10.63;;
6505;SDS011;3286;49.858;8.768;2022-12-05T04:43:47;26.17;;;11.07;;
6505;SDS011;3286;49.858;8.768;2022-12-05T04:46:16;24.10;;;11.20;;
6505;SDS011;3286;49.858;8.768;2022-12-05T04:48:49;27.93;;;11.60;;
6505;SDS011;3286;49.858;8.768;2022-12-05T04:51:21;24.70;;;11.37;;
6505;SDS011;3286;49.858;8.768;2022-12-05T04:53:52;27.00;;;11.27;;
6505;SDS011;3286;49.858;8.768;2022-12-05T04:56:23;23.57;;;10.50;;
6505;SDS011;3286;49.858;8.768;2022-12-05T04:58:56;22.80;;;11.43;;
6505;SDS011;3286;49.858;8.768;2022-12-05T05:01:24;25.73;;;10.90;;
6505;SDS011;3286;49.858;8.768;2022-12-05T05:04:01;26.37;;;10.63;;
6505;SDS011;3286;49.858;8.768;2022-12-05T05:06:35;22.80;;;10.73;;
6505;SDS011;3286;49.858;8.768;2022-12-05T05:09:05;25.77;;;11.40;;
6505;SDS011;3286;49.858;8.768;2022-12-05T05:11:32;27.13;;;12.13;;
6505;SDS011;3286;49.858;8.768;2022-12-05T05:14:00;26.90;;;12.73;;
6505;SDS011;3286;49.858;8.768;2022-12-05T05:16:28;26.60;;;11.50;;
6505;SDS011;3286;49.858;8.768;2022-12-05T05:18:56;26.00;;;11.60;;
6505;SDS011;3286;49.858;8.768;2022-12-05T05:21:25;25.13;;;11.27;;
6505;SDS011;3286;49.858;8.768;2022-12-05T05:23:54;25.03;;;10.87;;
6505;SDS011;3286;49.858;8.768;2022-12-05T05:26:25;23.47;;;11.97;;
6505;SDS011;3286;49.858;8.768;2022-12-05T05:28:53;28.27;;;11.47;;
6505;SDS011;3286;49.858;8.768;2022-12-05T05:31:23;22.93;;;10.10;;
6505;SDS011;3286;49.858;8.768;2022-12-05T05:33:51;23.53;;;11.10;;
6505;SDS011;3286;49.858;8.768;2022-12-05T05:36:19;20.00;;;10.50;;
6505;SDS011;3286;49.858;8.768;2022-12-05T05:38:51;23.67;;;10.17;;
6505;SDS011;3286;49.858;8.768;2022-12-05T05:41:20;20.57;;;10.67;;
6505;SDS011;3286;49.858;8.768;2022-12-05T05:43:49;25.67;;;11.30;;
6505;SDS011;3286;49.858;8.768;2022-12-05T05:46:19;22.70;;;10.60;;
6505;SDS011;3286;49.858;8.768;2022-12-05T05:48:48;22.17;;;10.97;;
6505;SDS011;3286;49.858;8.768;2022-12-05T05:51:16;23.97;;;11.37;;
6505;SDS011;3286;49.858;8.768;2022-12-05T05:53:45;25.77;;;11.60;;
6505;SDS011;3286;49.858;8.768;2022-12-05T05:56:13;24.83;;;11.27;;
6505;SDS011;3286;49.858;8.768;2022-12-05T05:58:43;24.97;;;10.97;;
6505;SDS011;3286;49.858;8.768;2022-12-05T06:01:11;24.70;;;11.50;;
6505;SDS011;3286;49.858;8.768;2022-12-05T06:03:39;25.07;;;11.17;;
6505;SDS011;3286;49.858;8.768;2022-12-05T06:06:14;22.37;;;10.90;;
6505;SDS011;3286;49.858;8.768;2022-12-05T06:08:42;20.13;;;11.60;;
6505;SDS011;3286;49.858;8.768;2022-12-05T06:11:10;26.73;;;11.67;;
6505;SDS011;3286;49.858;8.768;2022-12-05T06:13:39;23.70;;;11.17;;
6505;SDS011;3286;49.858;8.768;2022-12-05T06:16:09;21.87;;;11.60;;
6505;SDS011;3286;49.858;8.768;2022-12-05T06:18:37;20.87;;;10.57;;
6505;SDS011;3286;49.858;8.768;2022-12-05T06:21:07;22.27;;;10.13;;
6505;SDS011;3286;49.858;8.768;2022-12-05T06:23:34;18.70;;;10.10;;
6505;SDS011;3286;49.858;8.768;2022-12-05T06:26:03;27.87;;;11.60;;
6505;SDS011;3286;49.858;8.768;2022-12-05T06:28:31;22.60;;;11.00;;
6505;SDS011;3286;49.858;8.768;2022-12-05T06:31:05;22.90;;;10.93;;
6505;SDS011;3286;49.858;8.768;2022-12-05T06:33:32;26.70;;;12.20;;
6505;SDS011;3286;49.858;8.768;2022-12-05T06:36:03;27.43;;;12.30;;
6505;SDS011;3286;49.858;8.768;2022-12-05T06:38:32;24.10;;;11.90;;
6505;SDS011;3286;49.858;8.768;2022-12-05T06:40:59;22.57;;;11.43;;
6505;SDS011;3286;49.858;8.768;2022-12-05T06:43:29;26.80;;;12.07;;
6505;SDS011;3286;49.858;8.768;2022-12-05T06:45:56;19.97;;;10.90;;
6505;SDS011;3286;49.858;8.768;2022-12-05T06:48:23;24.07;;;12.00;;
6505;SDS011;3286;49.858;8.768;2022-12-05T06:50:50;24.47;;;12.00;;
6505;SDS011;3286;49.858;8.768;2022-12-05T06:53:21;21.53;;;11.00;;
6505;SDS011;3286;49.858;8.768;2022-12-05T06:55:54;23.83;;;12.33;;
6505;SDS011;3286;49.858;8.768;2022-12-05T06:58:21;25.50;;;12.13;;
6505;SDS011;3286;49.858;8.768;2022-12-05T07:00:50;25.87;;;12.17;;
6505;SDS011;3286;49.858;8.768;2022-12-05T07:03:36;24.40;;;11.90;;
6505;SDS011;3286;49.858;8.768;2022-12-05T07:06:05;26.27;;;12.20;;
6505;SDS011;3286;49.858;8.768;2022-12-05T07:08:33;26.17;;;11.67;;
6505;SDS011;3286;49.858;8.768;2022-12-05T07:11:07;30.00;;;12.20;;
6505;SDS011;3286;49.858;8.768;2022-12-05T07:13:34;26.63;;;12.10;;
6505;SDS011;3286;49.858;8.768;2022-12-05T07:16:01;28.07;;;12.27;;
6505;SDS011;3286;49.858;8.768;2022-12-05T07:18:30;30.60;;;12.57;;
6505;SDS011;3286;49.858;8.768;2022-12-05T07:20:59;25.57;;;12.23;;
6505;SDS011;3286;49.858;8.768;2022-12-05T07:23:29;24.80;;;11.40;;
6505;SDS011;3286;49.858;8.768;2022-12-05T07:25:56;25.90;;;11.47;;
6505;SDS011;3286;49.858;8.768;2022-12-05T07:28:31;23.90;;;11.70;;
6505;SDS011;3286;49.858;8.768;2022-12-05T07:30:58;23.63;;;11.40;;
6505;SDS011;3286;49.858;8.768;2022-12-05T07:33:26;28.10;;;12.80;;
6505;SDS011;3286;49.858;8.768;2022-12-05T07:35:59;25.50;;;12.77;;
6505;SDS011;3286;49.858;8.768;2022-12-05T07:38:29;27.03;;;11.87;;
6505;SDS011;3286;49.858;8.768;2022-12-05T07:40:57;24.73;;;11.67;;
6505;SDS011;3286;49.858;8.768;2022-12-05T07:43:24;31.07;;;12.87;;
6505;SDS011;3286;49.858;8.768;2022-12-05T07:45:51;26.77;;;12.37;;
6505;SDS011;3286;49.858;8.768;2022-12-05T07:48:17;24.63;;;12.60;;
6505;SDS011;3286;49.858;8.768;2022-12-05T07:50:44;29.07;;;13.23;;
6505;SDS011;3286;49.858;8.768;2022-12-05T07:53:12;30.37;;;12.90;;
6505;SDS011;3286;49.858;8.768;2022-12-05T07:55:40;27.50;;;12.03;;
6505;SDS011;3286;49.858;8.768;2022-12-05T07:58:07;26.00;;;12.33;;
6505;SDS011;3286;49.858;8.768;2022-12-05T08:00:35;29.80;;;13.37;;
6505;SDS011;3286;49.858;8.768;2022-12-05T08:03:02;24.07;;;12.37;;
6505;SDS011;3286;49.858;8.768;2022-12-05T08:05:31;28.27;;;12.47;;
6505;SDS011;3286;49.858;8.768;2022-12-05T08:08:01;26.50;;;12.67;;
6505;SDS011;3286;49.858;8.768;2022-12-05T08:10:32;25.73;;;12.03;;
6505;SDS011;3286;49.858;8.768;2022-12-05T08:12:59;27.53;;;12.23;;
6505;SDS011;3286;49.858;8.768;2022-12-05T08:15:26;25.80;;;11.70;;
6505;SDS011;3286;49.858;8.768;2022-12-05T08:17:54;30.23;;;11.67;;
6505;SDS011;3286;49.858;8.768;2022-12-05T08:20:21;25.93;;;11.63;;
6505;SDS011;3286;49.858;8.768;2022-12-05T08:22:57;24.67;;;11.70;;
6505;SDS011;3286;49.858;8.768;2022-12-05T08:25:24;26.77;;;12.07;;
6505;SDS011;3286;49.858;8.768;2022-12-05T08:27:52;20.87;;;11.07;;
6505;SDS011;3286;49.858;8.768;2022-12-05T08:30:18;27.27;;;11.83;;
6505;SDS011;3286;49.858;8.768;2022-12-05T08:32:45;23.47;;;11.50;;
6505;SDS011;3286;49.858;8.768;2022-12-05T08:35:14;21.00;;;11.83;;
6505;SDS011;3286;49.858;8.768;2022-12-05T08:37:41;21.83;;;11.53;;
6505;SDS011;3286;49.858;8.768;2022-12-05T08:40:10;26.03;;;11.17;;
6505;SDS011;3286;49.858;8.768;2022-12-05T08:42:39;24.00;;;11.20;;
6505;SDS011;3286;49.858;8.768;2022-12-05T08:45:08;24.30;;;10.90;;
6505;SDS011;3286;49.858;8.768;2022-12-05T08:47:35;23.90;;;11.37;;
6505;SDS011;3286;49.858;8.768;2022-12-05T08:50:04;23.23;;;11.60;;
6505;SDS011;3286;49.858;8.768;2022-12-05T08:52:31;21.53;;;11.37;;
6505;SDS011;3286;49.858;8.768;2022-12-05T08:54:58;27.07;;;11.33;;
6505;SDS011;3286;49.858;8.768;2022-12-05T08:57:25;24.33;;;10.30;;
6505;SDS011;3286;49.858;8.768;2022-12-05T08:59:54;22.10;;;10.77;;
6505;SDS011;3286;49.858;8.768;2022-12-05T09:02:26;20.47;;;10.57;;
6505;SDS011;3286;49.858;8.768;2022-12-05T09:04:53;26.00;;;10.37;;
6505;SDS011;3286;49.858;8.768;2022-12-05T09:07:22;19.27;;;10.50;;
6505;SDS011;3286;49.858;8.768;2022-12-05T09:09:50;22.83;;;10.93;;
6505;SDS011;3286;49.858;8.768;2022-12-05T09:12:21;21.73;;;11.00;;
6505;SDS011;3286;49.858;8.768;2022-12-05T09:14:50;18.80;;;9.70;;
6505;SDS011;3286;49.858;8.768;2022-12-05T09:17:17;25.57;;;11.13;;
6505;SDS011;3286;49.858;8.768;2022-12-05T09:19:45;20.87;;;10.57;;
6505;SDS011;3286;49.858;8.768;2022-12-05T09:22:11;31.80;;;12.07;;
6505;SDS011;3286;49.858;8.768;2022-12-05T09:24:41;18.40;;;9.83;;
6505;SDS011;3286;49.858;8.768;2022-12-05T09:27:07;19.53;;;10.10;;
6505;SDS011;3286;49.858;8.768;2022-12-05T09:29:34;27.50;;;11.07;;
6505;SDS011;3286;49.858;8.768;2022-12-05T09:32:01;22.63;;;11.23;;
6505;SDS011;3286;49.858;8.768;2022-12-05T09:34:28;18.67;;;9.83;;
6505;SDS011;3286;49.858;8.768;2022-12-05T09:37:03;21.80;;;9.90;;
6505;SDS011;3286;49.858;8.768;2022-12-05T09:39:29;21.90;;;10.97;;
6505;SDS011;3286;49.858;8.768;2022-12-05T09:42:10;17.33;;;9.73;;
6505;SDS011;3286;49.858;8.768;2022-12-05T09:47:51;16.83;;;8.93;;
6505;SDS011;3286;49.858;8.768;2022-12-05T09:50:23;16.13;;;9.57;;
6505;SDS011;3286;49.858;8.768;2022-12-05T09:53:06;17.87;;;9.23;;
6505;SDS011;3286;49.858;8.768;2022-12-05T09:55:43;19.77;;;9.87;;
6505;SDS011;3286;49.858;8.768;2022-12-05T10:01:19;15.37;;;8.83;;
6505;SDS011;3286;49.858;8.768;2022-12-05T10:04:00;17.97;;;9.07;;
6505;SDS011;3286;49.858;8.768;2022-12-05T10:06:38;18.90;;;9.93;;
6505;SDS011;3286;49.858;8.768;2022-12-05T10:09:17;19.93;;;9.73;;
6505;SDS011;3286;49.858;8.768;2022-12-05T10:12:00;20.13;;;10.80;;
6505;SDS011;3286;49.858;8.768;2022-12-05T10:14:39;20.60;;;9.73;;
6505;SDS011;3286;49.858;8.768;2022-12-05T10:17:15;22.13;;;10.73;;
6505;SDS011;3286;49.858;8.768;2022-12-05T10:19:49;20.93;;;9.77;;
6505;SDS011;3286;49.858;8.768;2022-12-05T10:22:21;17.63;;;9.67;;
6505;SDS011;3286;49.858;8.768;2022-12-05T10:24:55;18.23;;;9.53;;
6505;SDS011;3286;49.858;8.768;2022-12-05T10:27:29;19.23;;;9.77;;
6505;SDS011;3286;49.858;8.768;2022-12-05T10:30:02;20.77;;;10.23;;
6505;SDS011;3286;49.858;8.768;2022-12-05T10:32:30;31.10;;;10.07;;
6505;SDS011;3286;49.858;8.768;2022-12-05T10:35:08;21.80;;;9.87;;
6505;SDS011;3286;49.858;8.768;2022-12-05T10:37:43;21.70;;;11.07;;
6505;SDS011;3286;49.858;8.768;2022-12-05T10:40:14;23.20;;;11.60;;
6505;SDS011;3286;49.858;8.768;2022-12-05T10:42:42;24.00;;;11.83;;
6505;SDS011;3286;49.858;8.768;2022-12-05T10:45:13;27.43;;;11.43;;
6505;SDS011;3286;49.858;8.768;2022-12-05T10:47:44;21.47;;;10.30;;
6505;SDS011;3286;49.858;8.768;2022-12-05T10:50:20;22.30;;;11.00;;
6505;SDS011;3286;49.858;8.768;2022-12-05T10:52:52;24.63;;;11.53;;
6505;SDS011;3286;49.858;8.768;2022-12-05T10:55:35;23.00;;;10.80;;
6505;SDS011;3286;49.858;8.768;2022-12-05T10:58:10;21.93;;;10.10;;
6505;SDS011;3286;49.858;8.768;2022-12-05T11:00:42;21.77;;;9.87;;
6505;SDS011;3286;49.858;8.768;2022-12-05T11:03:25;23.20;;;9.73;;
6505;SDS011;3286;49.858;8.768;2022-12-05T11:05:55;19.97;;;9.97;;
6505;SDS011;3286;49.858;8.768;2022-12-05T11:08:25;19.30;;;9.93;;
6505;SDS011;3286;49.858;8.768;2022-12-05T11:11:03;19.83;;;10.53;;
6505;SDS011;3286;49.858;8.768;2022-12-05T11:13:32;19.30;;;10.03;;
6505;SDS011;3286;49.858;8.768;2022-12-05T11:16:02;19.87;;;9.57;;
6505;SDS011;3286;49.858;8.768;2022-12-05T11:18:31;20.30;;;9.83;;
6505;SDS011;3286;49.858;8.768;2022-12-05T11:21:09;20.03;;;9.43;;
6505;SDS011;3286;49.858;8.768;2022-12-05T11:23:37;17.90;;;10.33;;
6505;SDS011;3286;49.858;8.768;2022-12-05T11:26:13;20.07;;;9.70;;
6505;SDS011;3286;49.858;8.768;2022-12-05T11:28:48;21.00;;;10.37;;
6505;SDS011;3286;49.858;8.768;2022-12-05T11:31:19;22.33;;;11.00;;
6505;SDS011;3286;49.858;8.768;2022-12-05T11:34:01;19.37;;;9.47;;
6505;SDS011;3286;49.858;8.768;2022-12-05T11:36:38;18.57;;;9.17;;
6505;SDS011;3286;49.858;8.768;2022-12-05T11:39:08;20.23;;;9.53;;
6505;SDS011;3286;49.858;8.768;2022-12-05T11:41:42;17.97;;;9.57;;
6505;SDS011;3286;49.858;8.768;2022-12-05T11:47:24;21.87;;;9.67;;
6505;SDS011;3286;49.858;8.768;2022-12-05T11:50:08;24.93;;;10.87;;
6505;SDS011;3286;49.858;8.768;2022-12-05T11:52:56;21.20;;;10.03;;
6505;SDS011;3286;49.858;8.768;2022-12-05T11:55:36;20.30;;;9.77;;
6505;SDS011;3286;49.858;8.768;2022-12-05T12:01:11;20.97;;;10.30;;
6505;SDS011;3286;49.858;8.768;2022-12-05T12:03:51;21.70;;;9.93;;
6505;SDS011;3286;49.858;8.768;2022-12-05T12:06:32;19.40;;;9.70;;
6505;SDS011;3286;49.858;8.768;2022-12-05T12:09:29;20.27;;;9.67;;
6505;SDS011;3286;49.858;8.768;2022-12-05T12:12:12;18.40;;;9.53;;
6505;SDS011;3286;49.858;8.768;2022-12-05T12:14:49;21.60;;;10.23;;
6505;SDS011;3286;49.858;8.768;2022-12-05T12:17:24;21.67;;;9.63;;
6505;SDS011;3286;49.858;8.768;2022-12-05T12:23:05;18.40;;;10.00;;
6505;SDS011;3286;49.858;8.768;2022-12-05T12:25:44;18.67;;;9.90;;
6505;SDS011;3286;49.858;8.768;2022-12-05T12:28:27;16.73;;;9.40;;
6505;SDS011;3286;49.858;8.768;2022-12-05T12:31:08;18.13;;;9.40;;
6505;SDS011;3286;49.858;8.768;2022-12-05T12:33:45;20.60;;;10.70;;
6505;SDS011;3286;49.858;8.768;2022-12-05T12:36:21;21.80;;;10.20;;
6505;SDS011;3286;49.858;8.768;2022-12-05T12:39:06;22.60;;;10.27;;
6505;SDS011;3286;49.858;8.768;2022-12-05T12:41:59;17.53;;;9.93;;
6505;SDS011;3286;49.858;8.768;2022-12-05T12:47:35;22.23;;;9.70;;
6505;SDS011;3286;49.858;8.768;2022-12-05T12:50:12;25.70;;;10.43;;
6505;SDS011;3286;49.858;8.768;2022-12-05T12:52:53;22.03;;;9.60;;
6505;SDS011;3286;49.858;8.768;2022-12-05T12:55:39;22.13;;;10.07;;
6505;SDS011;3286;49.858;8.768;2022-12-05T12:58:11;23.13;;;11.07;;
6505;SDS011;3286;49.858;8.768;2022-12-05T13:00:50;23.77;;;10.27;;
6505;SDS011;3286;49.858;8.768;2022-12-05T13:03:29;21.93;;;9.67;;
6505;SDS011;3286;49.858;8.768;2022-12-05T13:06:01;18.30;;;9.27;;
6505;SDS011;3286;49.858;8.768;2022-12-05T13:08:37;19.10;;;9.57;;
6505;SDS011;3286;49.858;8.768;2022-12-05T13:11:10;20.97;;;9.17;;
6505;SDS011;3286;49.858;8.768;2022-12-05T13:13:42;20.20;;;9.63;;
6505;SDS011;3286;49.858;8.768;2022-12-05T13:16:15;20.70;;;10.17;;
6505;SDS011;3286;49.858;8.768;2022-12-05T13:18:52;20.97;;;10.33;;
6505;SDS011;3286;49.858;8.768;2022-12-05T13:21:19;18.30;;;9.83;;
6505;SDS011;3286;49.858;8.768;2022-12-05T13:23:49;23.03;;;11.07;;
6505;SDS011;3286;49.858;8.768;2022-12-05T13:26:24;22.23;;;10.47;;
6505;SDS011;3286;49.858;8.768;2022-12-05T13:28:54;20.90;;;10.83;;
6505;SDS011;3286;49.858;8.768;2022-12-05T13:31:36;22.90;;;10.03;;
6505;SDS011;3286;49.858;8.768;2022-12-05T13:34:22;23.17;;;10.37;;
6505;SDS011;3286;49.858;8.768;2022-12-05T13:37:10;21.87;;;9.77;;
6505;SDS011;3286;49.858;8.768;2022-12-05T13:40:00;20.00;;;9.77;;
6505;SDS011;3286;49.858;8.768;2022-12-05T13:42:47;17.87;;;9.57;;
6505;SDS011;3286;49.858;8.768;2022-12-05T13:45:25;20.73;;;9.73;;
6505;SDS011;3286;49.858;8.768;2022-12-05T13:47:54;19.07;;;9.57;;
6505;SDS011;3286;49.858;8.768;2022-12-05T13:50:35;20.30;;;10.80;;
6505;SDS011;3286;49.858;8.768;2022-12-05T13:53:17;21.77;;;10.43;;
6505;SDS011;3286;49.858;8.768;2022-12-05T13:55:54;19.27;;;9.60;;
6505;SDS011;3286;49.858;8.768;2022-12-05T13:58:35;17.93;;;9.77;;
6505;SDS011;3286;49.858;8.768;2022-12-05T14:10:21;18.40;;;9.90;;
6505;SDS011;3286;49.858;8.768;2022-12-05T14:12:50;19.43;;;10.23;;
6505;SDS011;3286;49.858;8.768;2022-12-05T14:18:12;20.40;;;10.10;;
6505;SDS011;3286;49.858;8.768;2022-12-05T14:23:46;19.40;;;10.10;;
6505;SDS011;3286;49.858;8.768;2022-12-05T14:26:33;16.13;;;9.10;;
6505;SDS011;3286;49.858;8.768;2022-12-05T14:29:14;16.47;;;9.10;;
6505;SDS011;3286;49.858;8.768;2022-12-05T14:31:57;16.17;;;8.73;;
6505;SDS011;3286;49.858;8.768;2022-12-05T14:34:34;15.50;;;8.33;;
6505;SDS011;3286;49.858;8.768;2022-12-05T14:37:03;15.43;;;9.03;;
6505;SDS011;3286;49.858;8.768;2022-12-05T14:39:35;15.87;;;8.53;;
6505;SDS011;3286;49.858;8.768;2022-12-05T14:42:17;16.33;;;8.67;;
6505;SDS011;3286;49.858;8.768;2022-12-05T14:44:49;12.27;;;7.60;;
6505;SDS011;3286;49.858;8.768;2022-12-05T14:47:19;15.83;;;8.20;;
6505;SDS011;3286;49.858;8.768;2022-12-05T14:49:55;13.57;;;7.53;;
6505;SDS011;3286;49.858;8.768;2022-12-05T14:52:26;14.40;;;8.40;;
6505;SDS011;3286;49.858;8.768;2022-12-05T14:54:57;14.83;;;8.00;;
6505;SDS011;3286;49.858;8.768;2022-12-05T14:57:29;12.70;;;7.80;;
6505;SDS011;3286;49.858;8.768;2022-12-05T15:00:13;14.80;;;8.03;;
6505;SDS011;3286;49.858;8.768;2022-12-05T15:02:46;19.20;;;10.87;;
6505;SDS011;3286;49.858;8.768;2022-12-05T15:05:17;15.07;;;8.10;;
6505;SDS011;3286;49.858;8.768;2022-12-05T15:07:49;12.83;;;8.47;;
6505;SDS011;3286;49.858;8.768;2022-12-05T15:10:21;14.77;;;8.50;;
6505;SDS011;3286;49.858;8.768;2022-12-05T15:12:53;18.87;;;8.93;;
6505;SDS011;3286;49.858;8.768;2022-12-05T15:15:24;16.20;;;8.33;;
6505;SDS011;3286;49.858;8.768;2022-12-05T15:18:00;14.27;;;8.97;;
6505;SDS011;3286;49.858;8.768;2022-12-05T15:20:36;13.80;;;8.70;;
6505;SDS011;3286;49.858;8.768;2022-12-05T15:26:16;15.97;;;9.97;;
6505;SDS011;3286;49.858;8.768;2022-12-05T15:28:57;16.30;;;9.40;;
6505;SDS011;3286;49.858;8.768;2022-12-05T15:31:31;22.83;;;12.77;;
6505;SDS011;3286;49.858;8.768;2022-12-05T15:33:59;19.10;;;11.43;;
6505;SDS011;3286;49.858;8.768;2022-12-05T15:36:33;56.80;;;28.10;;
6505;SDS011;3286;49.858;8.768;2022-12-05T15:39:05;56.53;;;27.93;;
6505;SDS011;3286;49.858;8.768;2022-12-05T15:41:42;25.10;;;15.27;;
6505;SDS011;3286;49.858;8.768;2022-12-05T15:44:11;16.53;;;11.73;;
6505;SDS011;3286;49.858;8.768;2022-12-05T15:46:38;16.23;;;9.50;;
6505;SDS011;3286;49.858;8.768;2022-12-05T15:49:15;12.60;;;8.27;;
6505;SDS011;3286;49.858;8.768;2022-12-05T15:51:43;17.90;;;9.53;;
6505;SDS011;3286;49.858;8.768;2022-12-05T15:54:12;12.47;;;8.17;;
6505;SDS011;3286;49.858;8.768;2022-12-05T15:56:43;14.07;;;8.17;;
6505;SDS011;3286;49.858;8.768;2022-12-05T15:59:15;14.10;;;7.43;;
6505;SDS011;3286;49.858;8.768;2022-12-05T16:01:45;13.43;;;7.57;;